createdAt,value
2023-03-26T00:03:20.625Z,71.84
2023-03-26T00:08:23.273Z,71.68
2023-03-26T00:13:28.218Z,71.83
2023-03-26T00:18:31.581Z,72.16
2023-03-26T00:23:35.157Z,72.67
2023-03-26T00:28:40.530Z,72.79
2023-03-26T00:33:42.834Z,72.71
2023-03-26T00:38:46.852Z,72.82
2023-03-26T00:44:09.794Z,72.29
2023-03-26T00:49:14.916Z,72.02
2023-03-26T00:54:36.643Z,70.99
2023-03-26T00:59:39.229Z,71.17
2023-03-26T01:04:46.011Z,70.98
2023-03-26T01:09:52.693Z,71.35
2023-03-26T01:15:00.776Z,71.22
2023-03-26T01:20:13.596Z,71.83
2023-03-26T01:25:15.788Z,72.07
2023-03-26T01:30:20.878Z,72.38
2023-03-26T01:35:35.184Z,73.09
2023-03-26T01:40:47.045Z,73.16
2023-03-26T01:45:51.384Z,73.03
2023-03-26T01:50:56.384Z,73.75
2023-03-26T01:56:29.317Z,73.94
2023-03-26T02:01:45.177Z,73.90
2023-03-26T02:07:20.995Z,74.34
2023-03-26T02:12:23.928Z,73.77
2023-03-26T02:17:26.150Z,73.74
2023-03-26T02:22:30.044Z,73.89
2023-03-26T02:27:33.910Z,74.13
2023-03-26T02:32:36.646Z,74.35
2023-03-26T02:37:39.843Z,73.90
2023-03-26T02:42:49.876Z,73.64
2023-03-26T02:47:52.290Z,73.97
2023-03-26T02:53:14.406Z,74.00
2023-03-26T02:58:17.517Z,73.88
2023-03-26T03:03:19.741Z,74.38
2023-03-26T03:08:50.430Z,73.89
2023-03-26T03:13:53.077Z,73.77
2023-03-26T03:18:58.479Z,73.67
2023-03-26T03:24:11.761Z,73.46
2023-03-26T03:29:20.378Z,73.64
2023-03-26T03:34:23.479Z,73.76
2023-03-26T03:39:26.057Z,73.65
2023-03-26T03:44:27.798Z,73.90
2023-03-26T03:49:29.793Z,73.73
2023-03-26T03:54:31.679Z,73.80
2023-03-26T03:59:47.652Z,74.14
2023-03-26T04:04:50.446Z,73.92
2023-03-26T04:09:56.204Z,73.76
2023-03-26T04:14:59.187Z,73.68
2023-03-26T04:20:14.512Z,73.47
2023-03-26T04:25:17.251Z,73.34
2023-03-26T04:30:27.350Z,73.32
2023-03-26T04:35:52.176Z,73.17
2023-03-26T04:40:54.904Z,73.32
2023-03-26T04:46:14.655Z,73.45
2023-03-26T04:51:38.169Z,72.90
2023-03-26T04:56:51.458Z,73.11
2023-03-26T05:02:06.195Z,73.56
2023-03-26T05:07:19.790Z,72.93
2023-03-26T05:12:28.054Z,72.87
2023-03-26T05:17:41.727Z,72.72
2023-03-26T05:22:50.116Z,73.02
2023-03-26T05:27:58.198Z,72.82
2023-03-26T05:33:04.412Z,72.30
2023-03-26T05:38:15.581Z,71.91
2023-03-26T05:43:17.319Z,71.59
2023-03-26T05:48:29.272Z,71.09
2023-03-26T05:53:32.280Z,70.48
2023-03-26T05:59:14.765Z,69.37
2023-03-26T06:04:41.158Z,69.33
2023-03-26T06:10:02.910Z,68.98
2023-03-26T06:15:06.181Z,67.75
2023-03-26T06:20:19.061Z,67.66
2023-03-26T06:25:23.757Z,67.00
2023-03-26T06:30:42.199Z,66.30
2023-03-26T06:36:08.773Z,65.80
2023-03-26T06:41:11.109Z,65.37
2023-03-26T06:46:27.687Z,65.42
2023-03-26T06:51:48.544Z,65.12
2023-03-26T06:56:59.940Z,65.07
2023-03-26T07:02:01.723Z,64.86
2023-03-26T07:07:24.700Z,64.98
2023-03-26T07:12:46.075Z,64.92
2023-03-26T07:18:13.699Z,64.51
2023-03-26T07:23:20.595Z,63.42
2023-03-26T07:29:05.460Z,63.10
2023-03-26T07:34:34.905Z,62.94
2023-03-26T07:40:10.421Z,62.00
2023-03-26T07:45:38.174Z,61.27
2023-03-26T07:50:56.704Z,60.61
2023-03-26T07:56:32.989Z,59.82
2023-03-26T08:01:56.308Z,58.20
2023-03-26T08:07:28.228Z,57.95
2023-03-26T08:13:39.923Z,57.07
2023-03-26T08:19:11.405Z,57.32
2023-03-26T08:24:24.974Z,57.51
2023-03-26T08:29:42.164Z,56.16
2023-03-26T08:34:44.544Z,55.78
2023-03-26T08:39:47.062Z,56.81
2023-03-26T08:45:22.745Z,55.74
2023-03-26T08:50:49.608Z,55.65
2023-03-26T08:56:12.890Z,55.88
2023-03-26T09:02:10.139Z,56.57
2023-03-26T09:07:49.380Z,56.45
2023-03-26T09:13:09.763Z,56.01
2023-03-26T09:18:46.241Z,55.27
2023-03-26T09:24:19.416Z,57.12
2023-03-26T09:30:00.372Z,59.02
2023-03-26T09:35:13.558Z,62.15
2023-03-26T09:40:22.521Z,66.05
2023-03-26T09:45:28.366Z,68.00
2023-03-26T09:50:48.621Z,69.31
2023-03-26T09:56:14.534Z,70.19
2023-03-26T10:01:29.494Z,70.30
2023-03-26T10:06:44.668Z,70.87
2023-03-26T10:12:06.680Z,69.74
2023-03-26T10:17:48.797Z,64.57
2023-03-26T10:23:13.909Z,62.29
2023-03-26T10:28:27.542Z,60.44
2023-03-26T10:34:06.348Z,62.42
2023-03-26T10:39:38.142Z,62.42
2023-03-26T10:44:45.339Z,63.10
2023-03-26T10:50:02.538Z,61.96
2023-03-26T10:55:18.522Z,61.58
2023-03-26T11:00:26.090Z,59.48
2023-03-26T11:05:45.813Z,57.73
2023-03-26T11:11:01.220Z,55.09
2023-03-26T11:16:14.402Z,53.79
2023-03-26T11:21:33.340Z,53.86
2023-03-26T11:27:21.328Z,51.67
2023-03-26T11:32:31.995Z,49.67
2023-03-26T11:37:43.816Z,49.87
2023-03-26T11:42:47.726Z,49.06
2023-03-26T11:48:12.771Z,47.18
2023-03-26T11:53:20.620Z,46.91
2023-03-26T11:58:29.826Z,46.51
2023-03-26T12:03:31.953Z,45.87
2023-03-26T12:08:39.222Z,45.67
2023-03-26T12:13:51.888Z,44.31
2023-03-26T12:19:07.384Z,43.48
2023-03-26T12:24:25.827Z,43.12
2023-03-26T12:29:34.080Z,43.68
2023-03-26T12:34:39.398Z,44.08
2023-03-26T12:40:10.487Z,45.59
2023-03-26T12:45:06.910Z,45.31
2023-03-26T12:50:14.765Z,45.66
2023-03-26T12:55:51.885Z,44.99
2023-03-26T13:01:02.913Z,44.41
2023-03-26T13:06:19.240Z,45.08
2023-03-26T13:11:26.692Z,44.48
2023-03-26T13:16:39.677Z,45.99
2023-03-26T13:22:01.381Z,45.82
2023-03-26T13:27:27.950Z,44.35
2023-03-26T13:33:03.629Z,44.69
2023-03-26T13:38:34.041Z,43.41
2023-03-26T13:43:41.529Z,45.10
2023-03-26T13:48:59.485Z,45.65
2023-03-26T13:54:07.606Z,45.39
2023-03-26T13:59:19.144Z,45.07
2023-03-26T14:04:33.695Z,44.72
2023-03-26T14:09:51.308Z,43.74
2023-03-26T14:15:04.283Z,43.20
2023-03-26T14:20:23.855Z,43.60
2023-03-26T14:25:44.489Z,43.76
2023-03-26T14:31:20.722Z,43.11
2023-03-26T14:37:06.335Z,42.42
2023-03-26T14:42:19.388Z,43.68
2023-03-26T14:47:23.761Z,43.94
2023-03-26T14:52:51.697Z,44.09
2023-03-26T14:58:09.508Z,43.92
2023-03-26T15:03:54.095Z,43.01
2023-03-26T15:09:14.097Z,43.40
2023-03-26T15:14:39.123Z,43.81
2023-03-26T15:19:46.994Z,43.75
2023-03-26T15:25:13.632Z,43.41
2023-03-26T15:30:53.120Z,44.34
2023-03-26T15:36:30.337Z,44.02
2023-03-26T15:41:45.870Z,43.62
2023-03-26T15:46:59.749Z,43.49
2023-03-26T15:52:26.054Z,43.03
2023-03-26T15:57:41.103Z,42.51
2023-03-26T16:03:09.287Z,42.12
2023-03-26T16:08:30.904Z,43.01
2023-03-26T16:13:39.004Z,44.02
2023-03-26T16:19:39.433Z,44.88
2023-03-26T16:25:27.399Z,45.50
2023-03-26T16:30:32.795Z,45.84
2023-03-26T16:36:20.391Z,46.64
2023-03-26T16:41:27.546Z,47.19
2023-03-26T16:46:43.974Z,47.90
2023-03-26T16:52:14.069Z,48.63
2023-03-26T16:57:28.488Z,48.69
2023-03-26T17:02:49.164Z,49.22
2023-03-26T17:08:35.919Z,49.83
2023-03-26T17:13:56.478Z,50.81
2023-03-26T17:19:14.084Z,51.24
2023-03-26T17:24:18.482Z,51.80
2023-03-26T17:29:49.663Z,52.10
2023-03-26T17:34:52.654Z,52.66
2023-03-26T17:40:00.428Z,53.28
2023-03-26T17:45:17.572Z,53.56
2023-03-26T17:50:51.982Z,54.07
2023-03-26T17:55:57.579Z,53.91
2023-03-26T18:01:24.519Z,54.20
2023-03-26T18:06:46.575Z,54.57
2023-03-26T18:12:17.503Z,54.76
2023-03-26T18:17:19.734Z,54.95
2023-03-26T18:22:30.677Z,54.90
2023-03-26T18:27:41.156Z,55.42
2023-03-26T18:32:52.765Z,57.40
2023-03-26T18:38:00.951Z,58.43
2023-03-26T18:43:02.962Z,59.50
2023-03-26T18:48:10.024Z,60.71
2023-03-26T18:53:20.734Z,61.39
2023-03-26T18:58:30.134Z,61.46
2023-03-26T19:03:36.178Z,61.58
2023-03-26T19:08:41.925Z,61.72
2023-03-26T19:13:46.349Z,61.83
2023-03-26T19:18:48.709Z,62.88
2023-03-26T19:23:52.289Z,63.72
2023-03-26T19:28:57.607Z,64.65
2023-03-26T19:34:11.633Z,65.62
2023-03-26T19:39:21.692Z,66.56
2023-03-26T19:44:33.385Z,67.61
2023-03-26T19:49:58.604Z,68.51
2023-03-26T19:55:01.621Z,69.03
2023-03-26T20:00:13.331Z,69.97
2023-03-26T20:05:26.954Z,70.85
2023-03-26T20:10:28.689Z,71.69
2023-03-26T20:15:33.962Z,72.23
2023-03-26T20:20:36.493Z,72.88
2023-03-26T20:25:46.490Z,72.89
2023-03-26T20:30:50.082Z,72.96
2023-03-26T20:35:56.823Z,73.41
2023-03-26T20:40:59.822Z,74.11
2023-03-26T20:46:01.693Z,74.59
2023-03-26T20:51:04.886Z,75.12
2023-03-26T20:56:13.682Z,75.94
2023-03-26T21:01:20.474Z,76.35
2023-03-26T21:06:24.971Z,76.59
2023-03-26T21:11:52.514Z,76.98
2023-03-26T21:16:55.505Z,77.15
2023-03-26T21:22:10.018Z,78.02
2023-03-26T21:27:31.038Z,78.05
2023-03-26T21:32:34.123Z,77.79
2023-03-26T21:37:37.666Z,77.78
2023-03-26T21:42:46.711Z,78.15
2023-03-26T21:48:03.044Z,77.77
2023-03-26T21:53:08.127Z,77.99
2023-03-26T21:58:20.489Z,78.51
2023-03-26T22:03:27.922Z,79.19
2023-03-26T22:08:31.715Z,78.45
2023-03-26T22:13:35.804Z,79.01
2023-03-26T22:18:37.934Z,79.35
2023-03-26T22:23:39.710Z,79.71
2023-03-26T22:28:41.570Z,79.85
2023-03-26T22:33:44.082Z,79.85
2023-03-26T22:38:46.625Z,80.39
2023-03-26T22:43:52.090Z,80.35
2023-03-26T22:48:54.765Z,80.88
2023-03-26T22:53:56.478Z,80.67
2023-03-26T22:58:58.384Z,80.14
2023-03-26T23:04:00.286Z,80.42
2023-03-26T23:09:03.935Z,80.51
2023-03-26T23:14:28.827Z,80.42
2023-03-26T23:19:34.044Z,80.35
2023-03-26T23:24:37.834Z,80.37
2023-03-26T23:29:39.745Z,80.29
2023-03-26T23:34:51.922Z,79.97
2023-03-26T23:40:22.486Z,79.97
2023-03-26T23:45:24.772Z,80.39
2023-03-26T23:50:33.207Z,80.53
2023-03-26T23:55:35.633Z,80.63
